Time;durP1;ratioP1;P1;durP2;ratioP2;P2;SDS_P1;SDS_P2;PMS_P1;PMS_P2;Temp;Humidity;BMP_temperature;BMP_pressure;BME280_temperature;BME280_humidity;BME280_pressure;Samples;Min_cycle;Max_cycle;Signal;HPM_P1;HPM_P2
2024/03/12 00:00:41;;;;;;;2.10;1.90;;;;;;;;;;5053639;28;20378;-82
2024/03/12 00:03:11;;;;;;;1.83;1.60;;;;;;;;;;5053702;28;20389;-82
2024/03/12 00:05:37;;;;;;;2.15;1.90;;;;;;;;;;5053597;28;20381;-82
2024/03/12 00:08:03;;;;;;;2.23;1.80;;;;;;;;;;5052956;28;20871;-82
2024/03/12 00:10:29;;;;;;;2.47;1.80;;;;;;;;;;5052394;28;20393;-82
2024/03/12 00:12:56;;;;;;;2.10;1.80;;;;;;;;;;5053581;28;20381;-82
2024/03/12 00:15:23;;;;;;;2.17;1.70;;;;;;;;;;5053248;28;20446;-82
2024/03/12 00:17:49;;;;;;;3.75;2.00;;;;;;;;;;5052654;28;20439;-82
2024/03/12 00:20:24;;;;;;;2.10;2.00;;;;;;;;;;5053172;28;20880;-82
2024/03/12 00:22:50;;;;;;;2.22;1.90;;;;;;;;;;5053650;28;20975;-82
2024/03/12 00:25:20;;;;;;;2.17;2.03;;;;;;;;;;5052775;28;20441;-82
2024/03/12 00:27:47;;;;;;;1.80;1.70;;;;;;;;;;5042821;28;20385;-82
2024/03/12 00:30:14;;;;;;;2.92;1.98;;;;;;;;;;5053504;28;20413;-83
2024/03/12 00:32:40;;;;;;;2.22;1.75;;;;;;;;;;5053285;28;20393;-82
2024/03/12 00:35:10;;;;;;;2.10;2.00;;;;;;;;;;5048343;28;20424;-82
2024/03/12 00:37:38;;;;;;;2.10;1.90;;;;;;;;;;5053196;28;20374;-82
2024/03/12 00:40:05;;;;;;;2.95;2.17;;;;;;;;;;5052924;28;20389;-82
2024/03/12 00:42:30;;;;;;;2.88;2.05;;;;;;;;;;5053063;28;20373;-82
2024/03/12 00:44:56;;;;;;;2.20;1.98;;;;;;;;;;5052776;28;20747;-82
2024/03/12 00:47:22;;;;;;;2.17;1.97;;;;;;;;;;5052915;28;20456;-82
2024/03/12 00:49:50;;;;;;;2.25;2.05;;;;;;;;;;5052723;28;20851;-82
2024/03/12 00:52:17;;;;;;;2.40;2.20;;;;;;;;;;5053164;28;20385;-82
2024/03/12 00:54:43;;;;;;;2.20;1.98;;;;;;;;;;5053474;28;20380;-82
2024/03/12 00:57:09;;;;;;;2.20;1.90;;;;;;;;;;5053421;28;20464;-82
2024/03/12 00:59:35;;;;;;;2.53;2.17;;;;;;;;;;5053181;28;20420;-82
2024/03/12 01:02:02;;;;;;;2.20;2.00;;;;;;;;;;5053040;28;20756;-82
2024/03/12 01:04:29;;;;;;;2.20;2.00;;;;;;;;;;5052681;28;20385;-82
2024/03/12 01:06:55;;;;;;;2.10;1.90;;;;;;;;;;5052593;28;20775;-82
2024/03/12 01:09:21;;;;;;;2.95;2.22;;;;;;;;;;5054053;28;20464;-82
2024/03/12 01:11:47;;;;;;;2.03;1.83;;;;;;;;;;5056961;28;20817;-82
2024/03/12 01:14:14;;;;;;;3.63;2.30;;;;;;;;;;5056245;28;20389;-82
2024/03/12 01:16:41;;;;;;;2.38;2.00;;;;;;;;;;5055970;28;20378;-82
2024/03/12 01:19:07;;;;;;;2.80;2.20;;;;;;;;;;5056119;28;20373;-82
2024/03/12 01:21:34;;;;;;;2.38;1.98;;;;;;;;;;5056464;28;20998;-82
2024/03/12 01:24:01;;;;;;;2.40;2.00;;;;;;;;;;5055973;28;20459;-82
2024/03/12 01:26:27;;;;;;;2.37;2.10;;;;;;;;;;5055850;28;20388;-82
2024/03/12 01:28:53;;;;;;;2.10;1.90;;;;;;;;;;5055827;28;20480;-83
2024/03/12 01:31:21;;;;;;;3.88;2.20;;;;;;;;;;5056160;28;20954;-82
2024/03/12 01:33:49;;;;;;;2.20;2.00;;;;;;;;;;5056189;28;20832;-83
2024/03/12 01:36:29;;;;;;;3.10;2.40;;;;;;;;;;5056257;28;20377;-82
2024/03/12 01:39:03;;;;;;;2.72;2.40;;;;;;;;;;5056235;28;20370;-82
2024/03/12 01:41:31;;;;;;;3.47;2.25;;;;;;;;;;5055831;28;20406;-83
2024/03/12 01:44:02;;;;;;;2.00;1.90;;;;;;;;;;5056390;28;20384;-82
2024/03/12 01:46:29;;;;;;;2.08;1.98;;;;;;;;;;5055862;28;20393;-82
2024/03/12 01:48:55;;;;;;;1.97;1.80;;;;;;;;;;5055471;28;20451;-82
2024/03/12 01:51:21;;;;;;;2.00;1.90;;;;;;;;;;5055259;28;20374;-82
2024/03/12 01:53:47;;;;;;;2.30;2.03;;;;;;;;;;5056022;28;20373;-83
2024/03/12 01:56:14;;;;;;;2.50;2.10;;;;;;;;;;5055536;28;20775;-82
2024/03/12 01:58:40;;;;;;;3.17;2.17;;;;;;;;;;5055541;28;20468;-82
2024/03/12 02:01:06;;;;;;;2.00;1.90;;;;;;;;;;5055510;28;20385;-82
2024/03/12 02:03:33;;;;;;;2.58;2.35;;;;;;;;;;5055588;28;20784;-82
2024/03/12 02:05:59;;;;;;;3.35;2.40;;;;;;;;;;5055428;28;20858;-82
2024/03/12 02:08:25;;;;;;;3.63;2.25;;;;;;;;;;5055492;28;20483;-82
2024/03/12 02:10:52;;;;;;;2.60;2.40;;;;;;;;;;5055537;28;20424;-82
2024/03/12 02:13:18;;;;;;;2.67;2.47;;;;;;;;;;5055665;28;20377;-82
2024/03/12 02:15:44;;;;;;;2.17;2.03;;;;;;;;;;5053503;28;20373;-82
2024/03/12 02:18:10;;;;;;;2.35;2.15;;;;;;;;;;5055239;28;20374;-82
2024/03/12 02:20:37;;;;;;;2.40;2.20;;;;;;;;;;5054101;28;20460;-82
2024/03/12 02:23:03;;;;;;;2.55;2.33;;;;;;;;;;5054839;28;20385;-82
2024/03/12 02:25:29;;;;;;;2.63;2.42;;;;;;;;;;5054698;28;20385;-82
2024/03/12 02:27:56;;;;;;;2.67;2.47;;;;;;;;;;5054857;28;20419;-82
2024/03/12 02:30:22;;;;;;;2.78;2.00;;;;;;;;;;5054650;28;20381;-82
2024/03/12 02:32:48;;;;;;;2.83;2.13;;;;;;;;;;5055048;28;20946;-82
2024/03/12 02:35:15;;;;;;;2.38;2.22;;;;;;;;;;5044357;28;20833;-83
2024/03/12 02:37:41;;;;;;;2.70;2.50;;;;;;;;;;5053323;28;20374;-82
2024/03/12 02:40:12;;;;;;;2.70;2.10;;;;;;;;;;5054560;28;20721;-82
2024/03/12 02:42:38;;;;;;;2.75;2.42;;;;;;;;;;5054498;28;20435;-82
2024/03/12 02:45:05;;;;;;;2.55;2.35;;;;;;;;;;5054517;28;20385;-82
2024/03/12 02:47:31;;;;;;;3.00;2.20;;;;;;;;;;5054964;28;20774;-82
2024/03/12 02:49:57;;;;;;;2.27;2.07;;;;;;;;;;5054222;28;20429;-82
2024/03/12 02:52:23;;;;;;;2.35;2.15;;;;;;;;;;5054526;28;20384;-82
2024/03/12 02:54:50;;;;;;;3.10;2.30;;;;;;;;;;5054657;28;20542;-82
2024/03/12 02:57:17;;;;;;;2.50;2.30;;;;;;;;;;5054732;28;20417;-82
2024/03/12 02:59:43;;;;;;;2.83;2.63;;;;;;;;;;5054556;28;20413;-82
2024/03/12 03:02:10;;;;;;;2.80;2.60;;;;;;;;;;5054470;28;20385;-82
2024/03/12 03:04:36;;;;;;;2.55;2.35;;;;;;;;;;5054161;28;20411;-82
2024/03/12 03:07:05;;;;;;;2.78;2.58;;;;;;;;;;5053849;28;20412;-82
2024/03/12 03:09:31;;;;;;;3.00;2.80;;;;;;;;;;5053829;28;20409;-82
2024/03/12 03:11:59;;;;;;;3.10;2.90;;;;;;;;;;5052568;28;20413;-82
2024/03/12 03:14:25;;;;;;;3.03;2.73;;;;;;;;;;5053557;28;20413;-82
2024/03/12 03:16:54;;;;;;;2.80;2.60;;;;;;;;;;5053807;28;20378;-82
2024/03/12 03:19:20;;;;;;;2.88;2.67;;;;;;;;;;5053816;28;20401;-82
2024/03/12 03:21:46;;;;;;;2.70;2.50;;;;;;;;;;5053936;28;20397;-82
2024/03/12 03:24:11;;;;;;;2.93;2.70;;;;;;;;;;5054024;28;20389;-82
2024/03/12 03:26:38;;;;;;;2.80;2.60;;;;;;;;;;5053858;28;20896;-82
2024/03/12 03:29:04;;;;;;;2.70;2.47;;;;;;;;;;5054183;28;20401;-82
2024/03/12 03:31:30;;;;;;;2.35;2.15;;;;;;;;;;5053410;28;20877;-82
2024/03/12 03:33:58;;;;;;;2.83;2.45;;;;;;;;;;5054114;28;20393;-82
2024/03/12 03:36:26;;;;;;;2.85;2.58;;;;;;;;;;5054021;28;20385;-82
2024/03/12 03:38:52;;;;;;;2.40;2.20;;;;;;;;;;5053622;28;20382;-82
2024/03/12 03:41:18;;;;;;;2.47;2.13;;;;;;;;;;5052784;28;20421;-83
2024/03/12 03:43:44;;;;;;;2.92;2.28;;;;;;;;;;5052558;28;20392;-83
2024/03/12 03:46:10;;;;;;;2.42;2.22;;;;;;;;;;5053412;28;20385;-82
2024/03/12 03:48:36;;;;;;;2.47;2.28;;;;;;;;;;5053380;28;20774;-82
2024/03/12 03:51:02;;;;;;;2.25;2.05;;;;;;;;;;5053485;28;20389;-83
2024/03/12 03:53:28;;;;;;;2.47;2.28;;;;;;;;;;5053275;28;20376;-82
2024/03/12 03:55:54;;;;;;;2.40;2.20;;;;;;;;;;5053248;28;20385;-83
2024/03/12 03:58:23;;;;;;;2.38;2.10;;;;;;;;;;5051566;28;20397;-82
2024/03/12 04:00:52;;;;;;;2.40;1.95;;;;;;;;;;5053230;28;20389;-83
2024/03/12 04:03:18;;;;;;;2.28;2.08;;;;;;;;;;5053363;28;21224;-82
2024/03/12 04:05:44;;;;;;;2.67;2.08;;;;;;;;;;5053231;28;20468;-82
2024/03/12 04:08:10;;;;;;;2.40;2.20;;;;;;;;;;5053540;28;20401;-83
2024/03/12 04:10:36;;;;;;;2.25;2.03;;;;;;;;;;5053850;28;20382;-83
2024/03/12 04:13:04;;;;;;;2.03;1.85;;;;;;;;;;5053540;28;20384;-83
2024/03/12 04:15:33;;;;;;;2.10;1.90;;;;;;;;;;5053790;28;20452;-82
2024/03/12 04:17:59;;;;;;;1.80;1.70;;;;;;;;;;5052508;28;20385;-82
2024/03/12 04:20:25;;;;;;;1.92;1.83;;;;;;;;;;5053232;28;20447;-82
2024/03/12 04:22:53;;;;;;;1.90;1.80;;;;;;;;;;5048093;28;20640;-82
2024/03/12 04:25:19;;;;;;;1.90;1.80;;;;;;;;;;5053210;28;20458;-82
2024/03/12 04:27:45;;;;;;;2.40;2.20;;;;;;;;;;5053022;28;20855;-83
2024/03/12 04:30:13;;;;;;;2.10;1.90;;;;;;;;;;5053491;28;20428;-82
2024/03/12 04:32:40;;;;;;;2.28;2.08;;;;;;;;;;5053695;28;20751;-82
2024/03/12 04:35:07;;;;;;;2.20;2.00;;;;;;;;;;5053759;28;20382;-82
2024/03/12 04:37:34;;;;;;;2.30;2.10;;;;;;;;;;5053510;28;20385;-82
2024/03/12 04:40:00;;;;;;;2.78;2.40;;;;;;;;;;5053313;28;20385;-82
2024/03/12 04:42:29;;;;;;;3.30;2.60;;;;;;;;;;5044464;28;20383;-82
2024/03/12 04:44:56;;;;;;;2.22;2.03;;;;;;;;;;5053747;28;20890;-82
2024/03/12 04:47:22;;;;;;;4.55;2.40;;;;;;;;;;5056938;28;20400;-82
2024/03/12 04:49:48;;;;;;;3.13;2.08;;;;;;;;;;5056614;28;20886;-82
2024/03/12 04:52:15;;;;;;;2.65;2.20;;;;;;;;;;5057256;28;20455;-83
2024/03/12 04:54:42;;;;;;;2.63;2.43;;;;;;;;;;5057300;28;20385;-83
2024/03/12 04:57:08;;;;;;;2.05;1.80;;;;;;;;;;5057147;28;20376;-82
2024/03/12 04:59:34;;;;;;;2.08;1.98;;;;;;;;;;5057022;28;20464;-82
2024/03/12 05:02:00;;;;;;;2.47;2.03;;;;;;;;;;5056869;28;20462;-82
2024/03/12 05:04:26;;;;;;;2.58;2.10;;;;;;;;;;5056773;28;20391;-82
2024/03/12 05:06:52;;;;;;;2.33;2.13;;;;;;;;;;5056580;28;20373;-83
2024/03/12 05:09:19;;;;;;;3.15;2.10;;;;;;;;;;5056520;28;20894;-82
2024/03/12 05:11:45;;;;;;;3.58;1.80;;;;;;;;;;5056287;28;20922;-82
2024/03/12 05:14:11;;;;;;;2.53;2.25;;;;;;;;;;5057065;28;20450;-83
2024/03/12 05:16:37;;;;;;;2.30;2.10;;;;;;;;;;5056730;28;20863;-83
2024/03/12 05:19:03;;;;;;;3.20;2.53;;;;;;;;;;5056548;28;20392;-83
2024/03/12 05:21:29;;;;;;;2.50;2.30;;;;;;;;;;5055678;28;20473;-83
2024/03/12 05:23:55;;;;;;;4.53;2.63;;;;;;;;;;5056009;28;20719;-82
2024/03/12 05:26:28;;;;;;;4.43;2.67;;;;;;;;;;5056071;28;20397;-82
2024/03/12 05:28:57;;;;;;;3.00;2.70;;;;;;;;;;5055913;28;20951;-83
2024/03/12 05:31:34;;;;;;;3.80;3.00;;;;;;;;;;5056360;28;20385;-82
2024/03/12 05:34:01;;;;;;;3.40;2.67;;;;;;;;;;5056259;28;20443;-82
2024/03/12 05:36:40;;;;;;;3.10;2.38;;;;;;;;;;5056234;28;20385;-82
2024/03/12 05:39:15;;;;;;;2.47;2.25;;;;;;;;;;5056092;28;20461;-82
2024/03/12 05:41:49;;;;;;;3.03;2.30;;;;;;;;;;5055783;28;20386;-82
2024/03/12 05:49:44;;;;;;;2.17;1.98;;;;;;;;;;5055634;28;20432;-83
2024/03/12 05:52:11;;;;;;;1.85;1.75;;;;;;;;;;5055996;28;20456;-83
2024/03/12 05:54:37;;;;;;;2.70;2.10;;;;;;;;;;5055565;28;20381;-83
2024/03/12 05:57:03;;;;;;;2.08;1.88;;;;;;;;;;5056149;28;20373;-82
2024/03/12 05:59:30;;;;;;;1.90;1.80;;;;;;;;;;5055923;28;20456;-83
2024/03/12 06:01:58;;;;;;;1.90;1.80;;;;;;;;;;5055788;28;20381;-83
2024/03/12 06:04:24;;;;;;;2.17;1.60;;;;;;;;;;5056100;28;20416;-83
2024/03/12 06:06:50;;;;;;;1.80;1.70;;;;;;;;;;5055652;28;20385;-83
2024/03/12 06:09:22;;;;;;;2.65;1.90;;;;;;;;;;5055648;28;20819;-83
2024/03/12 06:11:48;;;;;;;1.93;1.67;;;;;;;;;;5055612;28;20464;-83
2024/03/12 06:14:14;;;;;;;2.13;1.60;;;;;;;;;;5055864;28;20381;-83
2024/03/12 06:16:43;;;;;;;1.98;1.80;;;;;;;;;;5055261;28;20416;-83
2024/03/12 06:19:10;;;;;;;2.45;1.70;;;;;;;;;;5042257;28;20405;-82
2024/03/12 06:21:36;;;;;;;2.60;1.60;;;;;;;;;;5055779;28;20916;-83
2024/03/12 06:24:03;;;;;;;1.65;1.35;;;;;;;;;;5055885;28;20382;-83
2024/03/12 06:26:29;;;;;;;0.97;0.93;;;;;;;;;;5049250;28;20928;-82
2024/03/12 06:28:55;;;;;;;1.63;1.10;;;;;;;;;;5051422;28;20408;-82
2024/03/12 06:31:22;;;;;;;1.77;1.20;;;;;;;;;;5055734;28;20453;-83
2024/03/12 06:33:49;;;;;;;1.80;1.17;;;;;;;;;;5051685;28;20501;-81
2024/03/12 06:36:15;;;;;;;1.17;1.05;;;;;;;;;;5045970;28;20373;-83
2024/03/12 06:38:41;;;;;;;1.45;0.90;;;;;;;;;;5054459;28;20386;-82
2024/03/12 06:41:10;;;;;;;0.80;0.80;;;;;;;;;;5051504;28;20436;-82
2024/03/12 06:43:40;;;;;;;1.55;0.90;;;;;;;;;;5054760;28;20381;-83
2024/03/12 06:46:07;;;;;;;0.88;0.80;;;;;;;;;;5054433;28;20377;-82
2024/03/12 06:48:33;;;;;;;1.00;0.75;;;;;;;;;;5054570;28;20401;-82
2024/03/12 06:51:00;;;;;;;0.93;0.87;;;;;;;;;;5053743;28;21033;-83
2024/03/12 06:53:27;;;;;;;1.10;0.77;;;;;;;;;;5053046;28;20898;-83
2024/03/12 06:55:53;;;;;;;1.15;0.70;;;;;;;;;;5051482;28;20814;-82
2024/03/12 06:58:21;;;;;;;0.88;0.70;;;;;;;;;;5052674;28;20389;-83
2024/03/12 07:00:50;;;;;;;0.80;0.80;;;;;;;;;;5052860;28;20381;-82
2024/03/12 07:03:21;;;;;;;1.30;0.90;;;;;;;;;;5053078;28;20392;-82
2024/03/12 07:05:48;;;;;;;0.80;0.80;;;;;;;;;;5052934;28;21066;-83
2024/03/12 07:08:16;;;;;;;2.97;0.90;;;;;;;;;;5052462;28;20475;-83
2024/03/12 07:10:42;;;;;;;1.10;0.80;;;;;;;;;;5053527;28;20424;-82
2024/03/12 07:13:09;;;;;;;1.38;0.70;;;;;;;;;;5053731;28;20401;-82
2024/03/12 07:15:38;;;;;;;1.13;0.90;;;;;;;;;;5053744;28;20415;-82
2024/03/12 07:18:05;;;;;;;1.35;0.85;;;;;;;;;;5053611;28;20381;-83
2024/03/12 07:20:31;;;;;;;0.70;0.70;;;;;;;;;;5054255;28;20431;-82
2024/03/12 07:22:58;;;;;;;0.95;0.80;;;;;;;;;;5054730;28;20381;-82
2024/03/12 07:25:25;;;;;;;0.82;0.60;;;;;;;;;;5054213;28;20391;-83
2024/03/12 07:27:53;;;;;;;0.75;0.60;;;;;;;;;;5053981;28;20377;-83
2024/03/12 07:30:21;;;;;;;0.70;0.60;;;;;;;;;;5054424;28;21111;-83
2024/03/12 07:32:47;;;;;;;0.73;0.50;;;;;;;;;;5054425;28;20407;-83
2024/03/12 07:35:14;;;;;;;0.83;0.50;;;;;;;;;;5054141;28;20461;-83
2024/03/12 07:37:41;;;;;;;0.70;0.63;;;;;;;;;;5053688;28;20465;-82
2024/03/12 07:40:12;;;;;;;0.80;0.70;;;;;;;;;;5053442;28;20460;-82
2024/03/12 07:42:41;;;;;;;0.85;0.60;;;;;;;;;;5053505;28;20392;-82
2024/03/12 07:45:08;;;;;;;0.90;0.50;;;;;;;;;;5053722;28;20393;-83
2024/03/12 07:47:35;;;;;;;0.63;0.50;;;;;;;;;;5052962;28;20385;-82
2024/03/12 07:50:02;;;;;;;0.83;0.40;;;;;;;;;;5016750;28;1016053;-83
2024/03/12 07:52:28;;;;;;;1.38;0.50;;;;;;;;;;5054427;28;20404;-82
2024/03/12 07:54:54;;;;;;;0.50;0.50;;;;;;;;;;5054756;28;20429;-83
2024/03/12 07:57:21;;;;;;;0.43;0.43;;;;;;;;;;5054244;28;20396;-82
2024/03/12 07:59:47;;;;;;;0.50;0.40;;;;;;;;;;5054547;28;20382;-83
2024/03/12 08:02:15;;;;;;;1.00;1.00;;;;;;;;;;5054526;28;20774;-82
2024/03/12 08:04:44;;;;;;;1.50;1.40;;;;;;;;;;5054348;28;20377;-83
2024/03/12 08:07:11;;;;;;;0.82;0.70;;;;;;;;;;5054319;28;20851;-83
2024/03/12 08:09:37;;;;;;;0.40;0.40;;;;;;;;;;5054238;28;20408;-83
2024/03/12 08:12:03;;;;;;;0.68;0.50;;;;;;;;;;5054274;28;20381;-83
2024/03/12 08:14:30;;;;;;;0.60;0.60;;;;;;;;;;5053691;28;20456;-82
2024/03/12 08:16:57;;;;;;;0.70;0.70;;;;;;;;;;5053751;28;20392;-83
2024/03/12 08:19:27;;;;;;;0.75;0.75;;;;;;;;;;5052792;28;20423;-82
2024/03/12 08:21:53;;;;;;;0.70;0.65;;;;;;;;;;5054198;28;20389;-83
2024/03/12 08:24:19;;;;;;;0.80;0.80;;;;;;;;;;5054657;28;20450;-82
2024/03/12 08:26:46;;;;;;;1.90;0.90;;;;;;;;;;5054253;28;20431;-82
2024/03/12 08:29:13;;;;;;;1.33;0.95;;;;;;;;;;5053513;28;20413;-82
2024/03/12 08:31:39;;;;;;;2.22;0.98;;;;;;;;;;5053939;28;20385;-83
2024/03/12 08:34:05;;;;;;;1.17;0.80;;;;;;;;;;5050828;28;20373;-83
2024/03/12 08:36:33;;;;;;;1.42;0.75;;;;;;;;;;5052730;28;20384;-82
2024/03/12 08:38:59;;;;;;;1.10;0.77;;;;;;;;;;5054035;28;20464;-82
2024/03/12 08:41:25;;;;;;;0.70;0.68;;;;;;;;;;5053963;28;20374;-82
2024/03/12 08:43:51;;;;;;;0.90;0.80;;;;;;;;;;5053533;28;20739;-82
2024/03/12 08:46:18;;;;;;;0.90;0.80;;;;;;;;;;5053605;28;20731;-83
2024/03/12 08:48:44;;;;;;;0.63;0.60;;;;;;;;;;5054494;28;20499;-82
2024/03/12 08:51:13;;;;;;;0.63;0.60;;;;;;;;;;5053918;28;20436;-82
2024/03/12 08:53:39;;;;;;;0.77;0.70;;;;;;;;;;5053897;28;20735;-82
2024/03/12 08:56:05;;;;;;;0.70;0.68;;;;;;;;;;5053870;28;20431;-84
2024/03/12 08:58:32;;;;;;;0.70;0.70;;;;;;;;;;5053391;28;20424;-83
2024/03/12 09:00:58;;;;;;;0.82;0.70;;;;;;;;;;5053983;28;20386;-82
2024/03/12 09:03:25;;;;;;;1.90;0.90;;;;;;;;;;5053833;28;20382;-83
2024/03/12 09:05:51;;;;;;;0.80;0.80;;;;;;;;;;5054129;28;20389;-83
2024/03/12 09:08:17;;;;;;;2.08;1.20;;;;;;;;;;5053152;28;20393;-83
2024/03/12 09:10:47;;;;;;;1.43;1.30;;;;;;;;;;5053888;28;20490;-83
2024/03/12 09:13:16;;;;;;;1.75;1.63;;;;;;;;;;5053544;28;20378;-83
2024/03/12 09:15:42;;;;;;;1.55;1.45;;;;;;;;;;5053180;28;20854;-83
2024/03/12 09:18:09;;;;;;;1.98;1.77;;;;;;;;;;5052849;28;20381;-83
2024/03/12 09:20:36;;;;;;;1.98;1.65;;;;;;;;;;5053476;28;20831;-83
2024/03/12 09:23:02;;;;;;;2.25;1.80;;;;;;;;;;5053619;28;20869;-83
2024/03/12 09:25:30;;;;;;;2.30;2.10;;;;;;;;;;5052846;28;20395;-82
2024/03/12 09:27:56;;;;;;;2.40;2.20;;;;;;;;;;5053319;28;20393;-83
2024/03/12 09:30:23;;;;;;;2.45;2.30;;;;;;;;;;5054167;28;20414;-82
2024/03/12 09:32:51;;;;;;;2.67;2.17;;;;;;;;;;5056805;28;20392;-83
2024/03/12 09:35:20;;;;;;;2.70;2.25;;;;;;;;;;5056779;28;20782;-82
2024/03/12 09:37:46;;;;;;;2.80;2.47;;;;;;;;;;5055883;28;20456;-83
2024/03/12 09:40:13;;;;;;;3.22;2.80;;;;;;;;;;5057638;28;20397;-83
2024/03/12 09:42:43;;;;;;;3.30;3.00;;;;;;;;;;5057364;28;20731;-83
2024/03/12 09:45:09;;;;;;;2.70;2.47;;;;;;;;;;5043585;28;20992;-82
2024/03/12 09:47:36;;;;;;;4.18;2.47;;;;;;;;;;5058553;28;20385;-84
2024/03/12 09:50:05;;;;;;;2.80;2.60;;;;;;;;;;5058313;28;20421;-83
2024/03/12 09:52:31;;;;;;;3.63;2.53;;;;;;;;;;5058365;28;20373;-84
2024/03/12 09:54:58;;;;;;;2.60;2.40;;;;;;;;;;5057537;28;20735;-82
2024/03/12 09:57:26;;;;;;;2.80;2.60;;;;;;;;;;5057024;28;20384;-82
2024/03/12 09:59:52;;;;;;;3.03;2.75;;;;;;;;;;5056720;28;20389;-82
2024/03/12 10:02:20;;;;;;;2.85;2.63;;;;;;;;;;5057254;28;20381;-82
2024/03/12 10:04:49;;;;;;;2.55;2.35;;;;;;;;;;5056661;28;20465;-83
2024/03/12 10:07:16;;;;;;;2.60;2.40;;;;;;;;;;5052454;28;20387;-83
2024/03/12 10:09:42;;;;;;;2.38;2.17;;;;;;;;;;5056031;28;20463;-83
2024/03/12 10:12:09;;;;;;;2.60;2.33;;;;;;;;;;5056012;28;20405;-83
2024/03/12 10:14:35;;;;;;;3.00;2.60;;;;;;;;;;5055645;28;20435;-83
2024/03/12 10:17:14;;;;;;;2.67;2.47;;;;;;;;;;5056514;28;20464;-83
2024/03/12 10:19:44;;;;;;;2.80;2.35;;;;;;;;;;5056520;28;20391;-83
2024/03/12 10:22:15;;;;;;;2.63;2.42;;;;;;;;;;5056531;28;20435;-83
2024/03/12 10:24:41;;;;;;;4.72;2.53;;;;;;;;;;5056727;28;20429;-82
2024/03/12 10:27:07;;;;;;;2.67;2.47;;;;;;;;;;5056189;28;20895;-83
2024/03/12 10:29:37;;;;;;;3.03;2.63;;;;;;;;;;5054508;28;20409;-82
2024/03/12 10:32:26;;;;;;;2.70;2.50;;;;;;;;;;5044780;28;20877;-83
2024/03/12 10:34:53;;;;;;;3.10;2.80;;;;;;;;;;5055471;28;20388;-83
2024/03/12 10:37:26;;;;;;;3.05;2.75;;;;;;;;;;5048934;28;20385;-83
2024/03/12 10:39:52;;;;;;;3.40;3.10;;;;;;;;;;5047979;28;20877;-83
2024/03/12 10:42:25;;;;;;;3.15;2.85;;;;;;;;;;5055302;28;20468;-83
2024/03/12 10:44:51;;;;;;;3.20;2.90;;;;;;;;;;5056007;28;20394;-84
2024/03/12 10:47:18;;;;;;;3.03;2.83;;;;;;;;;;5055571;28;20878;-84
2024/03/12 10:49:48;;;;;;;3.33;3.03;;;;;;;;;;5055116;28;20416;-83
2024/03/12 10:52:18;;;;;;;3.83;3.53;;;;;;;;;;5055712;28;20404;-83
2024/03/12 10:54:44;;;;;;;4.00;3.65;;;;;;;;;;5053202;28;20416;-83
2024/03/12 10:57:11;;;;;;;3.83;3.53;;;;;;;;;;5050810;28;20471;-83
2024/03/12 10:59:38;;;;;;;4.43;3.50;;;;;;;;;;5048254;28;20568;-83
2024/03/12 11:02:06;;;;;;;3.67;3.38;;;;;;;;;;5051381;28;20519;-83
2024/03/12 11:04:35;;;;;;;4.30;3.92;;;;;;;;;;5052405;28;20439;-83
2024/03/12 11:07:02;;;;;;;5.00;4.05;;;;;;;;;;5055635;28;20762;-84
2024/03/12 11:09:29;;;;;;;4.10;3.80;;;;;;;;;;5055892;28;20397;-84
2024/03/12 11:11:55;;;;;;;3.92;3.60;;;;;;;;;;5055407;28;20377;-83
2024/03/12 11:14:21;;;;;;;3.75;3.45;;;;;;;;;;5056678;28;20377;-83
2024/03/12 11:16:47;;;;;;;4.90;3.60;;;;;;;;;;5055032;28;20390;-85
2024/03/12 11:19:18;;;;;;;4.05;3.60;;;;;;;;;;5045913;28;20477;-83
2024/03/12 11:21:47;;;;;;;3.90;3.60;;;;;;;;;;5049267;28;20393;-83
2024/03/12 11:24:13;;;;;;;5.18;4.65;;;;;;;;;;5052849;28;20766;-83
2024/03/12 11:26:41;;;;;;;4.45;4.05;;;;;;;;;;5046948;28;20390;-83
2024/03/12 11:29:07;;;;;;;5.80;4.70;;;;;;;;;;5054847;28;20405;-83
2024/03/12 11:31:39;;;;;;;4.67;4.13;;;;;;;;;;5054937;28;20382;-83
2024/03/12 11:34:05;;;;;;;5.45;4.80;;;;;;;;;;5040464;28;20874;-82
2024/03/12 11:36:32;;;;;;;4.65;4.18;;;;;;;;;;5054523;28;20390;-82
2024/03/12 11:38:59;;;;;;;4.20;3.88;;;;;;;;;;5054347;28;20457;-82
2024/03/12 11:41:45;;;;;;;3.72;3.42;;;;;;;;;;5048781;28;20385;-82
2024/03/12 11:44:31;;;;;;;3.90;3.33;;;;;;;;;;5053845;28;20385;-83
2024/03/12 11:46:57;;;;;;;3.88;3.50;;;;;;;;;;5054547;28;20397;-82
2024/03/12 11:49:32;;;;;;;4.35;3.95;;;;;;;;;;5054011;28;20439;-82
2024/03/12 11:51:58;;;;;;;4.15;3.85;;;;;;;;;;5054642;28;20405;-82
2024/03/12 11:54:40;;;;;;;4.73;3.87;;;;;;;;;;5054213;28;20411;-83
2024/03/12 11:57:19;;;;;;;4.20;3.80;;;;;;;;;;5053132;28;20719;-83
2024/03/12 11:59:45;;;;;;;4.50;4.10;;;;;;;;;;5054548;28;20377;-83
2024/03/12 12:02:12;;;;;;;4.10;3.70;;;;;;;;;;5055011;28;20397;-83
2024/03/12 12:04:38;;;;;;;4.70;4.30;;;;;;;;;;5054287;28;20717;-83
2024/03/12 12:07:04;;;;;;;4.88;4.45;;;;;;;;;;5053855;28;20387;-83
2024/03/12 12:09:30;;;;;;;4.57;4.18;;;;;;;;;;5054178;28;20409;-83
2024/03/12 12:11:56;;;;;;;4.35;3.88;;;;;;;;;;5054677;28;20385;-83
2024/03/12 12:14:22;;;;;;;4.65;4.18;;;;;;;;;;5054364;28;20473;-83
2024/03/12 12:16:56;;;;;;;4.50;4.10;;;;;;;;;;5054535;28;20468;-83
2024/03/12 12:19:22;;;;;;;4.55;4.15;;;;;;;;;;5053901;28;20382;-83
2024/03/12 12:21:51;;;;;;;4.22;3.83;;;;;;;;;;5054560;28;20381;-83
2024/03/12 12:24:17;;;;;;;6.75;4.63;;;;;;;;;;5050775;28;20458;-83
2024/03/12 12:26:46;;;;;;;5.30;4.80;;;;;;;;;;5046571;28;20373;-83
2024/03/12 12:29:12;;;;;;;4.60;4.20;;;;;;;;;;5053752;28;20409;-82
2024/03/12 12:31:39;;;;;;;4.47;4.07;;;;;;;;;;5054255;28;20464;-82
2024/03/12 12:34:08;;;;;;;4.47;3.83;;;;;;;;;;5054239;28;20387;-83
2024/03/12 12:36:39;;;;;;;4.32;3.92;;;;;;;;;;5052438;28;20381;-83
2024/03/12 12:39:09;;;;;;;4.40;4.00;;;;;;;;;;5048690;28;20416;-83
2024/03/12 12:41:39;;;;;;;4.83;4.43;;;;;;;;;;5051097;28;20405;-83
2024/03/12 12:44:15;;;;;;;4.05;3.67;;;;;;;;;;5048472;28;20429;-83
2024/03/12 12:46:41;;;;;;;3.85;3.53;;;;;;;;;;5040674;28;20443;-83
2024/03/12 12:49:08;;;;;;;4.10;3.70;;;;;;;;;;5039411;28;20809;-83
2024/03/12 12:51:37;;;;;;;4.50;4.10;;;;;;;;;;5040962;28;20378;-83
2024/03/12 12:54:04;;;;;;;4.13;3.72;;;;;;;;;;5036943;28;20371;-83
2024/03/12 12:56:31;;;;;;;5.68;4.38;;;;;;;;;;5037439;28;20753;-83
2024/03/12 12:59:07;;;;;;;5.10;4.22;;;;;;;;;;5035487;28;20383;-83
2024/03/12 13:01:33;;;;;;;5.10;4.45;;;;;;;;;;5035896;28;20478;-83
2024/03/12 13:03:59;;;;;;;5.68;4.90;;;;;;;;;;5053191;28;20834;-83
2024/03/12 13:06:25;;;;;;;5.75;5.15;;;;;;;;;;5051869;28;20389;-82
2024/03/12 13:08:52;;;;;;;6.63;5.63;;;;;;;;;;5052972;28;20825;-82
2024/03/12 13:11:24;;;;;;;6.57;5.70;;;;;;;;;;5053175;28;20401;-83
2024/03/12 13:13:53;;;;;;;5.72;5.22;;;;;;;;;;5049436;28;20738;-83
2024/03/12 13:16:21;;;;;;;5.85;5.30;;;;;;;;;;5045445;28;20865;-83
2024/03/12 13:18:48;;;;;;;5.97;5.32;;;;;;;;;;5054766;28;20382;-83
2024/03/12 13:21:18;;;;;;;5.78;5.18;;;;;;;;;;5058221;28;20381;-83
2024/03/12 13:23:45;;;;;;;5.80;4.93;;;;;;;;;;5058543;28;20384;-83
2024/03/12 13:26:12;;;;;;;6.05;5.30;;;;;;;;;;5056900;28;20392;-83
2024/03/12 13:28:39;;;;;;;5.55;5.05;;;;;;;;;;5056903;28;20405;-83
2024/03/12 13:31:05;;;;;;;6.40;5.80;;;;;;;;;;5055872;28;20389;-83
2024/03/12 13:33:31;;;;;;;5.80;5.20;;;;;;;;;;5057135;28;20778;-83
2024/03/12 13:35:58;;;;;;;6.30;5.65;;;;;;;;;;5057189;28;20385;-83
2024/03/12 13:38:26;;;;;;;6.85;6.10;;;;;;;;;;5057090;28;20409;-82
2024/03/12 13:40:55;;;;;;;7.18;6.30;;;;;;;;;;5055852;28;20398;-83
2024/03/12 13:43:22;;;;;;;7.63;6.90;;;;;;;;;;5057241;28;20369;-83
2024/03/12 13:45:48;;;;;;;6.80;6.10;;;;;;;;;;5055124;28;20417;-82
2024/03/12 13:48:14;;;;;;;7.57;6.87;;;;;;;;;;5056161;28;20385;-83
2024/03/12 13:50:44;;;;;;;8.18;6.75;;;;;;;;;;5056884;28;20483;-83
2024/03/12 13:53:10;;;;;;;8.23;6.78;;;;;;;;;;5056942;28;20468;-83
2024/03/12 13:55:37;;;;;;;7.95;6.53;;;;;;;;;;5057088;28;20473;-83
2024/03/12 13:58:03;;;;;;;7.63;6.82;;;;;;;;;;5057220;28;20422;-82
2024/03/12 14:00:31;;;;;;;8.85;7.00;;;;;;;;;;5056526;28;20419;-83
2024/03/12 14:02:58;;;;;;;8.63;7.00;;;;;;;;;;5056423;28;20469;-83
2024/03/12 14:05:24;;;;;;;7.90;7.18;;;;;;;;;;5056355;28;20385;-83
2024/03/12 14:07:50;;;;;;;7.72;6.93;;;;;;;;;;5056535;28;20388;-83
2024/03/12 14:10:18;;;;;;;8.65;7.60;;;;;;;;;;5056619;28;20437;-83
2024/03/12 14:12:45;;;;;;;8.40;7.50;;;;;;;;;;5056962;28;20955;-82
2024/03/12 14:15:11;;;;;;;8.73;7.82;;;;;;;;;;5055549;28;20516;-82
2024/03/12 14:17:37;;;;;;;10.05;8.23;;;;;;;;;;5055261;28;20389;-82
2024/03/12 14:20:16;;;;;;;9.25;8.30;;;;;;;;;;5055425;28;20389;-83
2024/03/12 14:22:43;;;;;;;8.55;7.25;;;;;;;;;;5044777;28;20384;-82
2024/03/12 14:25:11;;;;;;;8.80;7.90;;;;;;;;;;5056735;28;20883;-83
2024/03/12 14:27:37;;;;;;;9.10;7.97;;;;;;;;;;5052291;28;20393;-83
2024/03/12 14:30:03;;;;;;;8.40;7.53;;;;;;;;;;5056919;28;20428;-83
2024/03/12 14:32:29;;;;;;;9.10;7.50;;;;;;;;;;5050057;28;20378;-83
2024/03/12 14:34:56;;;;;;;8.52;7.60;;;;;;;;;;5054810;28;20941;-83
2024/03/12 14:37:22;;;;;;;8.82;7.93;;;;;;;;;;5056206;28;20396;-83
2024/03/12 14:39:48;;;;;;;8.45;7.55;;;;;;;;;;5055601;28;20759;-83
2024/03/12 14:42:14;;;;;;;7.70;7.00;;;;;;;;;;5054743;28;20485;-83
2024/03/12 14:44:40;;;;;;;9.27;7.85;;;;;;;;;;5054728;28;20389;-83
2024/03/12 14:47:06;;;;;;;9.23;7.70;;;;;;;;;;5055930;28;20827;-83
2024/03/12 14:49:32;;;;;;;9.13;8.13;;;;;;;;;;5055506;28;20887;-83